Time;durP1;ratioP1;P1;durP2;ratioP2;P2;SDS_P1;SDS_P2;PMS_P1;PMS_P2;Temp;Humidity;BMP_temperature;BMP_pressure;BME280_temperature;BME280_humidity;BME280_pressure;Samples;Min_cycle;Max_cycle;Signal;HPM_P1;HPM_P2
2022/05/28 00:00:27;;;;;;;0.45;0.45;;;;;;;;;;5039645;28;20470;-80
2022/05/28 00:02:54;;;;;;;0.10;0.10;;;;;;;;;;5037528;28;20041;-79
2022/05/28 00:05:20;;;;;;;0.25;0.25;;;;;;;;;;5041404;28;20061;-79
2022/05/28 00:07:46;;;;;;;0.15;0.15;;;;;;;;;;5046672;28;20064;-78
2022/05/28 00:10:13;;;;;;;0.25;0.25;;;;;;;;;;5043890;28;20115;-78
2022/05/28 00:12:39;;;;;;;0.17;0.17;;;;;;;;;;5043577;28;20036;-80
2022/05/28 00:15:06;;;;;;;3.20;0.45;;;;;;;;;;5048818;28;20029;-80
2022/05/28 00:17:32;;;;;;;0.30;0.17;;;;;;;;;;5049945;28;20025;-78
2022/05/28 00:19:58;;;;;;;0.10;0.10;;;;;;;;;;5044100;28;20548;-78
2022/05/28 00:22:24;;;;;;;0.20;0.20;;;;;;;;;;5039006;28;20029;-80
2022/05/28 00:24:50;;;;;;;3.47;2.00;;;;;;;;;;5039311;28;20037;-78
2022/05/28 00:27:16;;;;;;;0.22;0.22;;;;;;;;;;5044080;28;20030;-78
2022/05/28 00:29:42;;;;;;;0.22;0.22;;;;;;;;;;5036344;28;20032;-79
2022/05/28 00:32:09;;;;;;;6.70;0.63;;;;;;;;;;5044975;28;20437;-81
2022/05/28 00:34:36;;;;;;;0.50;0.50;;;;;;;;;;5033553;28;20030;-80
2022/05/28 00:37:02;;;;;;;0.20;0.20;;;;;;;;;;5042257;28;20064;-80
2022/05/28 00:39:28;;;;;;;3.40;1.27;;;;;;;;;;5043532;28;20483;-79
2022/05/28 00:41:55;;;;;;;0.15;0.15;;;;;;;;;;5038663;28;20107;-80
2022/05/28 00:44:21;;;;;;;0.10;0.10;;;;;;;;;;5048169;28;20116;-80
2022/05/28 00:46:47;;;;;;;0.25;0.25;;;;;;;;;;5036777;28;20120;-79
2022/05/28 00:49:17;;;;;;;0.68;0.20;;;;;;;;;;5047906;28;20029;-80
2022/05/28 00:51:47;;;;;;;0.30;0.30;;;;;;;;;;5038723;28;20110;-79
2022/05/28 00:54:13;;;;;;;2.45;0.70;;;;;;;;;;5038853;28;20060;-78
2022/05/28 00:56:39;;;;;;;0.75;0.75;;;;;;;;;;5041247;28;20022;-78
2022/05/28 00:59:05;;;;;;;0.43;0.38;;;;;;;;;;5039919;28;20025;-80
2022/05/28 01:01:31;;;;;;;3.00;1.00;;;;;;;;;;5041580;28;20026;-80
2022/05/28 01:04:17;;;;;;;9.23;0.47;;;;;;;;;;5043392;28;20053;-79
2022/05/28 01:06:59;;;;;;;1.27;0.47;;;;;;;;;;5038835;28;20112;-79
2022/05/28 01:09:24;;;;;;;;;;;;;;;;;;5043999;28;20033;-79
2022/05/28 01:11:54;;;;;;;0.60;0.60;;;;;;;;;;5046909;28;19955;-79
2022/05/28 01:14:29;;;;;;;0.20;0.20;;;;;;;;;;5040990;28;20036;-79
2022/05/28 01:16:57;;;;;;;0.22;0.22;;;;;;;;;;5034993;28;20032;-81
2022/05/28 01:19:42;;;;;;;0.85;0.47;;;;;;;;;;5035228;28;20453;-79
2022/05/28 01:22:18;;;;;;;0.15;0.15;;;;;;;;;;5035989;28;20045;-78
2022/05/28 01:25:03;;;;;;;0.10;0.10;;;;;;;;;;5046783;28;20026;-80
2022/05/28 01:27:31;;;;;;;6.55;0.65;;;;;;;;;;5034856;28;20068;-79
2022/05/28 01:29:59;;;;;;;0.35;0.35;;;;;;;;;;5031931;28;20068;-80
2022/05/28 01:32:26;;;;;;;0.20;0.20;;;;;;;;;;5044841;28;20028;-79
2022/05/28 01:34:53;;;;;;;0.25;0.17;;;;;;;;;;5045890;28;20086;-79
2022/05/28 01:37:19;;;;;;;0.15;0.10;;;;;;;;;;5036108;28;20056;-80
2022/05/28 01:39:46;;;;;;;10.90;0.80;;;;;;;;;;5041049;28;20032;-77
2022/05/28 01:42:13;;;;;;;0.30;0.30;;;;;;;;;;5046389;28;20103;-76
2022/05/28 01:44:42;;;;;;;0.73;0.55;;;;;;;;;;5046137;28;20606;-80
2022/05/28 01:47:08;;;;;;;0.60;0.60;;;;;;;;;;5036032;28;20033;-79
2022/05/28 01:49:34;;;;;;;1.63;0.77;;;;;;;;;;5049735;28;20480;-81
2022/05/28 01:52:02;;;;;;;0.22;0.22;;;;;;;;;;5033455;28;20120;-79
2022/05/28 01:54:30;;;;;;;4.75;0.70;;;;;;;;;;5044491;28;20036;-77
2022/05/28 01:56:57;;;;;;;0.60;0.60;;;;;;;;;;5046478;28;20032;-78
2022/05/28 01:59:24;;;;;;;0.30;0.17;;;;;;;;;;5042244;28;20025;-78
2022/05/28 02:01:51;;;;;;;0.17;0.17;;;;;;;;;;5042202;28;20052;-78
2022/05/28 02:04:17;;;;;;;0.20;0.20;;;;;;;;;;5041613;28;20106;-78
2022/05/28 02:06:43;;;;;;;0.00;0.00;;;;;;;;;;5044426;28;20033;-77
2022/05/28 02:09:12;;;;;;;0.17;0.17;;;;;;;;;;5043097;28;20045;-79
2022/05/28 02:11:47;;;;;;;0.40;0.40;;;;;;;;;;5037401;28;20033;-78
2022/05/28 02:14:19;;;;;;;1.35;0.95;;;;;;;;;;5036087;28;20030;-77
2022/05/28 02:16:49;;;;;;;3.83;0.30;;;;;;;;;;5046334;28;20555;-78
2022/05/28 02:19:27;;;;;;;0.80;0.63;;;;;;;;;;5041449;28;20582;-76
2022/05/28 02:22:01;;;;;;;1.08;0.50;;;;;;;;;;5036659;28;20043;-78
2022/05/28 02:24:32;;;;;;;0.38;0.38;;;;;;;;;;5044040;28;20079;-78
2022/05/28 02:27:00;;;;;;;0.50;0.20;;;;;;;;;;5032291;28;20061;-77
2022/05/28 02:29:26;;;;;;;0.30;0.30;;;;;;;;;;5043538;28;20116;-78
2022/05/28 02:31:52;;;;;;;1.02;0.75;;;;;;;;;;5040108;28;20082;-79
2022/05/28 02:34:18;;;;;;;0.35;0.25;;;;;;;;;;5048069;28;20107;-79
2022/05/28 02:36:44;;;;;;;0.17;0.17;;;;;;;;;;5044043;28;20503;-79
2022/05/28 02:39:10;;;;;;;0.80;0.52;;;;;;;;;;5046288;28;20053;-78
2022/05/28 02:41:37;;;;;;;2.42;0.52;;;;;;;;;;5045712;28;20541;-78
2022/05/28 02:44:03;;;;;;;0.30;0.30;;;;;;;;;;5029456;28;20760;-79
2022/05/28 02:46:29;;;;;;;0.52;0.52;;;;;;;;;;5039284;28;20099;-79
2022/05/28 02:48:55;;;;;;;2.95;0.40;;;;;;;;;;5044893;28;20076;-79
2022/05/28 02:51:22;;;;;;;10.38;0.35;;;;;;;;;;5040676;28;20029;-78
2022/05/28 02:53:49;;;;;;;0.28;0.28;;;;;;;;;;5045939;28;20021;-77
2022/05/28 02:56:15;;;;;;;2.95;0.80;;;;;;;;;;5038054;28;20368;-78
2022/05/28 02:58:41;;;;;;;0.40;0.22;;;;;;;;;;5038764;28;20028;-79
2022/05/28 03:01:23;;;;;;;1.30;0.98;;;;;;;;;;5042894;28;20032;-78
2022/05/28 03:03:49;;;;;;;0.57;0.43;;;;;;;;;;5041111;28;20041;-78
2022/05/28 03:06:15;;;;;;;1.88;0.20;;;;;;;;;;5047393;28;20624;-78
2022/05/28 03:08:41;;;;;;;4.13;0.85;;;;;;;;;;5047196;28;20387;-79
2022/05/28 03:11:07;;;;;;;6.40;0.57;;;;;;;;;;5040924;28;20041;-79
2022/05/28 03:13:33;;;;;;;5.18;0.20;;;;;;;;;;5032534;28;20054;-80
2022/05/28 03:15:59;;;;;;;7.57;1.98;;;;;;;;;;5041606;28;20053;-79
2022/05/28 03:18:25;;;;;;;1.70;0.88;;;;;;;;;;5036564;28;20025;-78
2022/05/28 03:20:51;;;;;;;0.45;0.35;;;;;;;;;;5043190;28;20116;-78
2022/05/28 03:23:17;;;;;;;0.10;0.10;;;;;;;;;;5043518;28;20468;-79
2022/05/28 03:25:43;;;;;;;0.28;0.28;;;;;;;;;;5043793;28;20044;-79
2022/05/28 03:28:09;;;;;;;0.20;0.20;;;;;;;;;;5036570;28;20044;-79
2022/05/28 03:30:35;;;;;;;0.45;0.28;;;;;;;;;;5033259;28;20457;-79
2022/05/28 03:33:01;;;;;;;0.30;0.30;;;;;;;;;;5038200;28;20025;-79
2022/05/28 03:35:27;;;;;;;0.50;0.35;;;;;;;;;;5044062;28;20033;-78
2022/05/28 03:37:53;;;;;;;3.92;0.88;;;;;;;;;;5037278;28;20508;-78
2022/05/28 03:40:19;;;;;;;0.22;0.22;;;;;;;;;;5035827;28;20080;-78
2022/05/28 03:42:45;;;;;;;0.63;0.30;;;;;;;;;;5040190;28;20491;-79
2022/05/28 03:45:11;;;;;;;0.30;0.30;;;;;;;;;;5042567;28;20033;-78
2022/05/28 03:47:37;;;;;;;0.20;0.20;;;;;;;;;;5043593;28;20044;-79
2022/05/28 03:50:04;;;;;;;1.67;1.55;;;;;;;;;;5047379;28;20407;-79
2022/05/28 03:52:30;;;;;;;6.53;1.35;;;;;;;;;;5036769;28;20026;-79
2022/05/28 03:54:56;;;;;;;0.22;0.22;;;;;;;;;;5044445;28;20024;-78
2022/05/28 03:57:27;;;;;;;0.30;0.30;;;;;;;;;;5044599;28;20017;-79
2022/05/28 03:59:53;;;;;;;0.60;0.57;;;;;;;;;;5040671;28;20480;-79
2022/05/28 04:02:19;;;;;;;4.95;1.95;;;;;;;;;;5040212;28;20041;-79
2022/05/28 04:04:49;;;;;;;0.10;0.10;;;;;;;;;;5036165;28;20037;-78
2022/05/28 04:07:15;;;;;;;0.63;0.30;;;;;;;;;;5046165;28;20037;-80
2022/05/28 04:09:41;;;;;;;0.40;0.40;;;;;;;;;;5042570;28;20036;-80
2022/05/28 04:12:07;;;;;;;0.30;0.30;;;;;;;;;;5043717;28;20037;-79
2022/05/28 04:14:33;;;;;;;0.43;0.35;;;;;;;;;;5041033;28;20419;-78
2022/05/28 04:16:59;;;;;;;0.32;0.32;;;;;;;;;;5042536;28;20108;-79
2022/05/28 04:19:25;;;;;;;0.05;0.05;;;;;;;;;;5034853;28;20034;-79
2022/05/28 04:21:51;;;;;;;0.10;0.10;;;;;;;;;;5033463;28;20063;-79
2022/05/28 04:24:17;;;;;;;6.78;2.10;;;;;;;;;;5040678;28;20543;-79
2022/05/28 04:26:43;;;;;;;0.00;0.00;;;;;;;;;;5043242;28;20029;-79
2022/05/28 04:29:09;;;;;;;0.13;0.13;;;;;;;;;;5038133;28;20031;-78
2022/05/28 04:31:35;;;;;;;0.52;0.30;;;;;;;;;;5033397;28;20381;-78
2022/05/28 04:34:00;;;;;;;0.10;0.10;;;;;;;;;;5038521;28;20071;-79
2022/05/28 04:36:26;;;;;;;8.52;1.40;;;;;;;;;;5050235;28;20098;-77
2022/05/28 04:38:52;;;;;;;0.28;0.25;;;;;;;;;;5040414;28;20033;-78
2022/05/28 04:41:18;;;;;;;0.10;0.10;;;;;;;;;;5047540;28;20383;-79
2022/05/28 04:43:44;;;;;;;0.47;0.32;;;;;;;;;;5042744;28;20634;-80
2022/05/28 04:46:10;;;;;;;0.80;0.20;;;;;;;;;;5035369;28;20032;-79
2022/05/28 04:48:36;;;;;;;0.30;0.30;;;;;;;;;;5043924;28;20426;-79
2022/05/28 04:51:02;;;;;;;0.15;0.15;;;;;;;;;;5042185;28;20498;-79
2022/05/28 04:53:28;;;;;;;0.88;0.28;;;;;;;;;;5049763;28;20036;-79
2022/05/28 04:55:54;;;;;;;0.65;0.17;;;;;;;;;;5044063;28;20029;-78
2022/05/28 04:58:20;;;;;;;0.13;0.13;;;;;;;;;;5047832;28;20475;-78
2022/05/28 05:00:46;;;;;;;0.25;0.10;;;;;;;;;;5046545;28;20040;-78
2022/05/28 05:03:13;;;;;;;0.40;0.40;;;;;;;;;;5045466;28;20049;-78
2022/05/28 05:05:39;;;;;;;0.00;0.00;;;;;;;;;;5049714;28;20086;-79
2022/05/28 05:08:05;;;;;;;0.30;0.30;;;;;;;;;;5044605;28;20502;-80
2022/05/28 05:10:31;;;;;;;0.20;0.20;;;;;;;;;;5047892;28;20071;-78
2022/05/28 05:12:58;;;;;;;0.57;0.22;;;;;;;;;;5034509;28;20033;-79
2022/05/28 05:15:24;;;;;;;0.43;0.43;;;;;;;;;;5045344;28;20518;-78
2022/05/28 05:17:50;;;;;;;0.00;0.00;;;;;;;;;;5041756;28;20036;-78
2022/05/28 05:20:16;;;;;;;0.70;0.40;;;;;;;;;;5046339;28;20082;-79
2022/05/28 05:22:42;;;;;;;1.70;0.63;;;;;;;;;;5039571;28;20032;-79
2022/05/28 05:25:09;;;;;;;1.17;0.25;;;;;;;;;;5045136;28;20054;-79
2022/05/28 05:27:35;;;;;;;1.40;0.08;;;;;;;;;;5044901;28;20400;-78
2022/05/28 05:30:01;;;;;;;0.30;0.30;;;;;;;;;;5036828;28;20076;-80
2022/05/28 05:32:27;;;;;;;0.17;0.17;;;;;;;;;;5041621;28;20033;-79
2022/05/28 05:34:53;;;;;;;0.10;0.10;;;;;;;;;;5041474;28;20048;-79
2022/05/28 05:37:19;;;;;;;0.63;0.63;;;;;;;;;;5045685;28;20761;-80
2022/05/28 05:39:45;;;;;;;0.47;0.25;;;;;;;;;;5049780;28;20025;-80
2022/05/28 05:42:11;;;;;;;0.00;0.00;;;;;;;;;;5046017;28;20152;-78
2022/05/28 05:44:37;;;;;;;1.95;0.20;;;;;;;;;;5036212;28;20128;-79
2022/05/28 05:47:04;;;;;;;0.10;0.10;;;;;;;;;;5039858;28;20037;-80
2022/05/28 05:49:30;;;;;;;0.00;0.00;;;;;;;;;;5048237;28;20025;-80
2022/05/28 05:51:56;;;;;;;1.60;0.65;;;;;;;;;;5038742;28;20033;-78
2022/05/28 05:54:25;;;;;;;0.20;0.10;;;;;;;;;;5039289;28;20060;-80
2022/05/28 05:56:52;;;;;;;8.30;0.20;;;;;;;;;;5036894;28;20673;-81
2022/05/28 05:59:17;;;;;;;0.10;0.10;;;;;;;;;;5042639;28;20033;-80
2022/05/28 06:01:43;;;;;;;0.20;0.20;;;;;;;;;;5046373;28;20400;-79
2022/05/28 06:04:09;;;;;;;1.25;0.47;;;;;;;;;;5046917;28;20076;-80
2022/05/28 06:06:35;;;;;;;0.03;0.03;;;;;;;;;;5045657;28;20509;-80
2022/05/28 06:09:01;;;;;;;0.60;0.28;;;;;;;;;;5036799;28;20021;-78
2022/05/28 06:11:27;;;;;;;0.03;0.00;;;;;;;;;;5046874;28;20037;-80
2022/05/28 06:13:53;;;;;;;0.00;0.00;;;;;;;;;;5042593;28;20128;-77
2022/05/28 06:16:19;;;;;;;0.30;0.20;;;;;;;;;;5045280;28;20017;-80
2022/05/28 06:18:45;;;;;;;0.05;0.05;;;;;;;;;;5046191;28;20586;-78
2022/05/28 06:21:12;;;;;;;6.40;0.30;;;;;;;;;;5045902;28;20029;-78
2022/05/28 06:23:38;;;;;;;0.32;0.32;;;;;;;;;;5046272;28;20032;-79
2022/05/28 06:26:04;;;;;;;0.10;0.10;;;;;;;;;;5033152;28;20022;-79
2022/05/28 06:28:31;;;;;;;0.73;0.20;;;;;;;;;;5038773;28;20013;-81
2022/05/28 06:31:03;;;;;;;0.17;0.17;;;;;;;;;;5035686;28;20071;-79
2022/05/28 06:33:29;;;;;;;0.60;0.50;;;;;;;;;;5034217;28;20215;-79
2022/05/28 06:35:59;;;;;;;0.10;0.10;;;;;;;;;;5037181;28;20146;-80
2022/05/28 06:38:25;;;;;;;2.47;0.68;;;;;;;;;;5044153;28;20096;-78
2022/05/28 06:40:51;;;;;;;0.47;0.47;;;;;;;;;;5038121;28;20035;-79
2022/05/28 06:43:17;;;;;;;0.20;0.10;;;;;;;;;;5046553;28;20078;-80
2022/05/28 06:45:43;;;;;;;0.10;0.10;;;;;;;;;;5040663;28;20029;-79
2022/05/28 06:48:09;;;;;;;0.20;0.20;;;;;;;;;;5044247;28;20029;-78
2022/05/28 06:53:20;;;;;;;0.20;0.20;;;;;;;;;;5046838;28;20047;-78
2022/05/28 06:55:47;;;;;;;0.00;0.00;;;;;;;;;;5045801;28;20013;-80
2022/05/28 06:58:13;;;;;;;0.10;0.10;;;;;;;;;;5047072;28;20031;-79
2022/05/28 07:00:39;;;;;;;0.10;0.10;;;;;;;;;;5028803;28;20044;-79
2022/05/28 07:03:05;;;;;;;2.67;1.15;;;;;;;;;;5039243;28;20049;-79
2022/05/28 07:05:31;;;;;;;0.40;0.40;;;;;;;;;;5035251;28;20041;-78
2022/05/28 07:07:57;;;;;;;0.32;0.20;;;;;;;;;;5033057;28;20021;-80
2022/05/28 07:10:23;;;;;;;2.45;0.38;;;;;;;;;;5048087;28;20087;-80
2022/05/28 07:12:50;;;;;;;0.10;0.10;;;;;;;;;;5034359;28;20058;-80
2022/05/28 07:15:16;;;;;;;3.70;1.05;;;;;;;;;;5033930;28;20028;-80
2022/05/28 07:17:42;;;;;;;1.88;0.55;;;;;;;;;;5039799;28;20347;-79
2022/05/28 07:20:08;;;;;;;1.45;0.13;;;;;;;;;;5037440;28;20029;-79
2022/05/28 07:22:35;;;;;;;0.55;0.17;;;;;;;;;;5043130;28;20028;-79
2022/05/28 07:25:01;;;;;;;0.15;0.10;;;;;;;;;;5045206;28;20738;-79
2022/05/28 07:27:27;;;;;;;0.10;0.10;;;;;;;;;;5044713;28;20040;-79
2022/05/28 07:29:56;;;;;;;0.13;0.13;;;;;;;;;;5037561;28;20029;-77
2022/05/28 07:32:29;;;;;;;7.32;0.28;;;;;;;;;;5044187;28;20046;-79
2022/05/28 07:34:55;;;;;;;0.40;0.40;;;;;;;;;;5045490;28;20049;-78
2022/05/28 07:37:21;;;;;;;0.70;0.70;;;;;;;;;;5046941;28;20270;-80
2022/05/28 07:39:47;;;;;;;0.20;0.20;;;;;;;;;;5036486;28;20078;-79
2022/05/28 07:42:13;;;;;;;4.75;0.17;;;;;;;;;;5030176;28;20025;-77
2022/05/28 07:44:40;;;;;;;0.05;0.05;;;;;;;;;;5044672;28;20025;-80
2022/05/28 07:47:06;;;;;;;4.28;0.55;;;;;;;;;;5036354;28;20545;-77
2022/05/28 07:49:32;;;;;;;0.63;0.63;;;;;;;;;;5048080;28;20566;-82
2022/05/28 07:51:58;;;;;;;0.10;0.10;;;;;;;;;;5032253;28;20026;-79
2022/05/28 07:54:24;;;;;;;0.13;0.13;;;;;;;;;;5031896;28;20160;-79
2022/05/28 07:56:50;;;;;;;0.08;0.08;;;;;;;;;;5034356;28;20030;-79
2022/05/28 07:59:16;;;;;;;0.20;0.10;;;;;;;;;;5047824;28;20499;-81
2022/05/28 08:01:42;;;;;;;1.30;1.20;;;;;;;;;;5030696;28;20099;-81
2022/05/28 08:04:09;;;;;;;0.20;0.20;;;;;;;;;;5041995;28;20475;-81
2022/05/28 08:06:35;;;;;;;0.30;0.20;;;;;;;;;;5044412;28;20387;-80
2022/05/28 08:09:01;;;;;;;0.17;0.17;;;;;;;;;;5046471;28;20025;-79
2022/05/28 08:11:27;;;;;;;0.47;0.47;;;;;;;;;;5040459;28;20037;-84
2022/05/28 08:13:53;;;;;;;2.08;0.85;;;;;;;;;;5050435;28;20033;-79
2022/05/28 08:16:19;;;;;;;0.65;0.60;;;;;;;;;;5040254;28;20021;-80
2022/05/28 08:18:46;;;;;;;0.20;0.20;;;;;;;;;;5043522;28;20055;-81
2022/05/28 08:23:56;;;;;;;0.10;0.10;;;;;;;;;;5046541;28;20499;-80
2022/05/28 08:26:22;;;;;;;1.75;0.28;;;;;;;;;;5046450;28;20028;-82
2022/05/28 08:28:49;;;;;;;1.20;0.52;;;;;;;;;;5037724;28;20033;-83
2022/05/28 08:31:16;;;;;;;0.82;0.63;;;;;;;;;;5048361;28;20124;-77
2022/05/28 08:33:42;;;;;;;0.30;0.13;;;;;;;;;;5047760;28;20082;-79
2022/05/28 08:36:08;;;;;;;0.63;0.30;;;;;;;;;;5037209;28;20029;-76
2022/05/28 08:38:34;;;;;;;0.35;0.35;;;;;;;;;;5041269;28;20029;-79
2022/05/28 08:41:00;;;;;;;0.38;0.38;;;;;;;;;;5038200;28;20055;-81
2022/05/28 08:43:28;;;;;;;0.20;0.20;;;;;;;;;;5041174;28;20502;-79
2022/05/28 08:45:54;;;;;;;0.45;0.25;;;;;;;;;;5040653;28;20100;-77
2022/05/28 08:48:26;;;;;;;2.53;0.40;;;;;;;;;;5042818;28;20071;-78
2022/05/28 08:50:57;;;;;;;0.75;0.30;;;;;;;;;;5043157;28;20373;-77
2022/05/28 08:53:28;;;;;;;0.65;0.20;;;;;;;;;;5040606;28;20431;-77
2022/05/28 08:55:54;;;;;;;0.52;0.52;;;;;;;;;;5039485;28;20025;-78
2022/05/28 08:58:23;;;;;;;5.18;0.90;;;;;;;;;;5033195;28;20029;-77
2022/05/28 09:00:55;;;;;;;0.10;0.10;;;;;;;;;;5038337;28;20173;-77
2022/05/28 09:03:23;;;;;;;0.20;0.20;;;;;;;;;;5029441;28;20492;-76
2022/05/28 09:05:58;;;;;;;0.35;0.30;;;;;;;;;;5045052;28;20036;-77
2022/05/28 09:08:44;;;;;;;1.75;1.10;;;;;;;;;;5042814;28;20036;-76
2022/05/28 09:11:15;;;;;;;5.72;1.85;;;;;;;;;;5048441;28;20128;-76
2022/05/28 09:13:43;;;;;;;0.82;0.40;;;;;;;;;;5042706;28;20561;-76
2022/05/28 09:16:14;;;;;;;1.00;0.70;;;;;;;;;;5049646;28;20029;-77
2022/05/28 09:18:41;;;;;;;0.98;0.52;;;;;;;;;;5039631;28;20383;-77
2022/05/28 09:21:09;;;;;;;0.82;0.32;;;;;;;;;;5050662;28;20029;-76
2022/05/28 09:23:40;;;;;;;2.53;0.75;;;;;;;;;;5050372;28;20029;-75
2022/05/28 09:26:06;;;;;;;1.40;0.63;;;;;;;;;;5049003;28;20032;-75
2022/05/28 09:28:50;;;;;;;3.30;0.40;;;;;;;;;;5048166;28;20476;-76
2022/05/28 09:31:31;;;;;;;1.13;0.47;;;;;;;;;;5031371;28;20034;-75
2022/05/28 09:34:07;;;;;;;0.10;0.10;;;;;;;;;;5031391;28;20067;-74
2022/05/28 09:36:40;;;;;;;1.13;0.93;;;;;;;;;;5045674;28;20570;-75
2022/05/28 09:39:16;;;;;;;0.60;0.45;;;;;;;;;;5049342;28;20121;-75
2022/05/28 09:41:50;;;;;;;2.50;1.02;;;;;;;;;;5051044;28;20500;-76
2022/05/28 09:44:35;;;;;;;0.20;0.20;;;;;;;;;;5051066;28;20024;-76
2022/05/28 09:47:11;;;;;;;2.08;0.32;;;;;;;;;;5048740;28;20073;-76
2022/05/28 09:49:54;;;;;;;0.98;0.47;;;;;;;;;;5045111;28;20518;-76
2022/05/28 09:52:22;;;;;;;1.27;0.43;;;;;;;;;;5038973;28;20043;-75
2022/05/28 09:54:48;;;;;;;0.00;0.00;;;;;;;;;;5034754;28;20488;-75
2022/05/28 09:57:28;;;;;;;0.43;0.20;;;;;;;;;;5038406;28;20021;-75
2022/05/28 10:00:00;;;;;;;0.40;0.35;;;;;;;;;;5048079;28;20021;-75
2022/05/28 10:02:43;;;;;;;2.83;0.52;;;;;;;;;;5050570;28;20083;-76
2022/05/28 10:05:16;;;;;;;0.90;0.60;;;;;;;;;;5049972;28;20565;-76
2022/05/28 10:07:48;;;;;;;0.20;0.20;;;;;;;;;;5047745;28;20430;-76
2022/05/28 10:10:14;;;;;;;3.73;0.27;;;;;;;;;;5057441;28;20074;-76
2022/05/28 10:12:40;;;;;;;2.08;0.95;;;;;;;;;;5038844;28;20030;-76
2022/05/28 10:15:26;;;;;;;1.67;0.85;;;;;;;;;;5030546;28;20033;-75
2022/05/28 10:17:54;;;;;;;0.20;0.10;;;;;;;;;;5043180;28;20029;-76
2022/05/28 10:20:21;;;;;;;0.32;0.32;;;;;;;;;;5047230;28;20036;-75
2022/05/28 10:22:48;;;;;;;0.20;0.20;;;;;;;;;;5046470;28;20032;-77
2022/05/28 10:25:24;;;;;;;12.93;0.30;;;;;;;;;;5037229;28;20037;-76
2022/05/28 10:27:51;;;;;;;0.90;0.50;;;;;;;;;;5046167;28;20024;-76
2022/05/28 10:30:30;;;;;;;0.40;0.13;;;;;;;;;;5045053;28;20036;-77
2022/05/28 10:32:56;;;;;;;0.57;0.57;;;;;;;;;;5038129;28;20381;-76
2022/05/28 10:35:25;;;;;;;0.45;0.45;;;;;;;;;;5039828;28;20029;-77
2022/05/28 10:37:51;;;;;;;2.30;0.47;;;;;;;;;;5044932;28;20068;-76
2022/05/28 10:40:19;;;;;;;3.40;0.82;;;;;;;;;;5045340;28;20025;-78
2022/05/28 10:42:46;;;;;;;0.30;0.25;;;;;;;;;;5048129;28;20485;-77
2022/05/28 10:45:15;;;;;;;0.50;0.22;;;;;;;;;;5037074;28;20070;-77
2022/05/28 10:47:54;;;;;;;0.10;0.10;;;;;;;;;;5043565;28;20047;-78
2022/05/28 10:50:43;;;;;;;0.52;0.52;;;;;;;;;;5036583;28;20032;-77
2022/05/28 10:53:14;;;;;;;0.65;0.65;;;;;;;;;;5037511;28;20116;-78
2022/05/28 10:55:42;;;;;;;6.35;1.75;;;;;;;;;;5045259;28;20036;-78
2022/05/28 10:58:14;;;;;;;0.68;0.65;;;;;;;;;;5047772;28;20033;-77
2022/05/28 11:00:58;;;;;;;2.25;1.65;;;;;;;;;;5043127;28;20029;-77
2022/05/28 11:03:35;;;;;;;3.85;2.20;;;;;;;;;;5046557;28;20136;-76
2022/05/28 11:06:27;;;;;;;6.88;1.25;;;;;;;;;;5033827;28;20033;-79
2022/05/28 11:09:05;;;;;;;0.80;0.68;;;;;;;;;;5006767;28;20037;-77
2022/05/28 11:11:49;;;;;;;1.63;1.02;;;;;;;;;;5034332;28;20514;-79
2022/05/28 11:14:18;;;;;;;0.35;0.20;;;;;;;;;;5045064;28;20021;-76
2022/05/28 11:16:52;;;;;;;0.82;0.50;;;;;;;;;;5045458;28;20029;-76
2022/05/28 11:19:36;;;;;;;1.13;1.02;;;;;;;;;;5046561;28;20396;-76
2022/05/28 11:22:21;;;;;;;0.40;0.40;;;;;;;;;;5044298;28;20075;-76
2022/05/28 11:25:01;;;;;;;0.38;0.38;;;;;;;;;;5035422;28;20032;-76
2022/05/28 11:27:35;;;;;;;0.80;0.63;;;;;;;;;;5035255;28;20029;-76
2022/05/28 11:30:15;;;;;;;0.45;0.45;;;;;;;;;;5034598;28;20030;-75
2022/05/28 11:32:50;;;;;;;2.75;0.88;;;;;;;;;;5044514;28;20045;-75
2022/05/28 11:35:16;;;;;;;0.28;0.28;;;;;;;;;;5044707;28;20052;-75
2022/05/28 11:37:44;;;;;;;0.30;0.30;;;;;;;;;;5038592;28;20120;-75
2022/05/28 11:40:28;;;;;;;0.25;0.25;;;;;;;;;;5045357;28;20025;-75
2022/05/28 11:43:13;;;;;;;0.85;0.40;;;;;;;;;;5043027;28;20025;-77
2022/05/28 11:45:51;;;;;;;2.17;0.47;;;;;;;;;;5045495;28;20087;-75
2022/05/28 11:48:20;;;;;;;1.10;0.77;;;;;;;;;;5047205;28;20021;-77
2022/05/28 11:53:35;;;;;;;0.32;0.32;;;;;;;;;;5040491;28;20546;-77
2022/05/28 11:56:06;;;;;;;0.93;0.45;;;;;;;;;;5047480;28;20017;-76
2022/05/28 11:58:55;;;;;;;0.20;0.20;;;18.60;66.30;;;;;;5049964;28;20017;-81
2022/05/28 12:01:24;;;;;;;2.08;1.20;;;18.00;66.90;;;;;;5035579;28;20051;-78
2022/05/28 12:03:52;;;;;;;0.30;0.30;;;17.80;66.80;;;;;;5042086;28;20091;-79
2022/05/28 12:06:34;;;;;;;2.42;0.90;;;17.70;67.50;;;;;;5048409;28;20029;-79
2022/05/28 12:09:15;;;;;;;0.50;0.50;;;18.10;65.60;;;;;;5037711;28;20030;-79
2022/05/28 12:11:49;;;;;;;1.88;0.30;;;17.90;65.80;;;;;;5038431;28;20041;-77
2022/05/28 12:14:35;;;;;;;1.27;0.75;;;18.20;66.10;;;;;;5044110;28;20025;-78
2022/05/28 12:17:21;;;;;;;0.20;0.20;;;19.20;62.10;;;;;;5047939;28;20036;-76
2022/05/28 12:19:59;;;;;;;0.63;0.63;;;19.50;61.40;;;;;;5049038;28;20017;-77
2022/05/28 12:22:29;;;;;;;1.15;1.05;;;19.10;61.30;;;;;;5040124;28;20028;-78
2022/05/28 12:25:06;;;;;;;0.10;0.10;;;18.50;63.20;;;;;;5049274;28;20039;-78
2022/05/28 12:27:48;;;;;;;0.22;0.22;;;18.90;62.90;;;;;;5040454;28;20314;-78
2022/05/28 12:30:39;;;;;;;0.30;0.30;;;18.80;60.70;;;;;;5048882;28;20082;-79
2022/05/28 12:33:17;;;;;;;;;;;18.50;62.80;;;;;;5042292;28;20037;-77
2022/05/28 12:35:58;;;;;;;1.17;1.00;;;17.70;63.20;;;;;;5043839;28;19920;-76
2022/05/28 12:38:44;;;;;;;0.88;0.40;;;17.00;65.70;;;;;;5046884;28;20727;-77
2022/05/28 12:41:32;;;;;;;0.65;0.65;;;16.50;70.00;;;;;;5049739;28;20021;-78
2022/05/28 12:44:23;;;;;;;0.80;0.45;;;16.60;72.60;;;;;;5039139;28;20029;-77
2022/05/28 12:46:59;;;;;;;1.90;0.43;;;17.30;69.00;;;;;;5029122;28;20479;-76
2022/05/28 12:49:33;;;;;;;2.35;0.28;;;17.40;68.60;;;;;;5051106;28;20108;-79
2022/05/28 12:52:10;;;;;;;2.92;0.70;;;17.20;68.70;;;;;;5044511;28;20025;-79
2022/05/28 12:54:38;;;;;;;1.80;0.82;;;17.20;68.70;;;;;;5045168;28;20025;-77
2022/05/28 12:57:09;;;;;;;2.53;0.45;;;17.40;67.30;;;;;;5037962;28;20040;-76
2022/05/28 12:59:42;;;;;;;2.00;0.95;;;18.70;62.70;;;;;;5043855;28;20029;-78
2022/05/28 13:02:16;;;;;;;1.00;0.60;;;21.60;58.10;;;;;;5033158;28;20039;-80
2022/05/28 13:05:00;;;;;;;1.75;0.38;;;22.30;54.00;;;;;;5039823;28;20049;-79
2022/05/28 13:07:34;;;;;;;3.83;0.47;;;22.40;52.00;;;;;;5038654;28;20872;-78
2022/05/28 13:10:24;;;;;;;0.90;0.30;;;22.50;51.60;;;;;;5045165;28;20097;-76
2022/05/28 13:13:11;;;;;;;5.07;0.65;;;23.60;48.50;;;;;;5034068;28;20034;-78
2022/05/28 13:16:13;;;;;;;0.30;0.30;;;23.70;47.90;;;;;;5040277;28;20021;-77
2022/05/28 13:19:20;;;;;;;0.52;0.22;;;23.10;48.00;;;;;;5039659;28;20025;-76
2022/05/28 13:21:55;;;;;;;0.32;0.30;;;22.60;48.30;;;;;;5044621;28;20585;-78
2022/05/28 13:24:40;;;;;;;0.17;0.17;;;23.10;47.30;;;;;;5036867;28;20033;-81
2022/05/28 13:27:33;;;;;;;0.70;0.30;;;21.80;48.30;;;;;;5043197;28;20025;-76
2022/05/28 13:30:07;;;;;;;1.02;0.63;;;21.60;50.30;;;;;;5038288;28;20459;-76
2022/05/28 13:32:36;;;;;;;0.30;0.20;;;22.50;48.00;;;;;;5047405;28;20029;-75
2022/05/28 13:35:05;;;;;;;2.38;0.93;;;21.40;50.50;;;;;;5046023;28;20055;-76
2022/05/28 13:37:31;;;;;;;0.28;0.28;;;21.90;50.80;;;;;;5051336;28;20387;-75
2022/05/28 13:39:57;;;;;;;0.55;0.43;;;21.40;52.20;;;;;;5045765;28;20541;-76
2022/05/28 13:42:25;;;;;;;0.95;0.75;;;23.60;48.00;;;;;;5049221;28;20074;-76
2022/05/28 13:44:52;;;;;;;0.20;0.20;;;24.90;46.00;;;;;;5044501;28;20151;-77
2022/05/28 13:47:24;;;;;;;4.47;0.40;;;24.10;45.90;;;;;;5045275;28;20502;-75
2022/05/28 13:49:53;;;;;;;1.65;0.73;;;22.30;50.00;;;;;;5043395;28;20036;-77
2022/05/28 13:52:20;;;;;;;2.03;0.38;;;21.20;52.40;;;;;;5046362;28;20025;-76
2022/05/28 13:55:00;;;;;;;0.20;0.20;;;19.70;54.50;;;;;;5042057;28;20068;-75
2022/05/28 13:57:39;;;;;;;0.10;0.10;;;18.20;57.30;;;;;;5039290;28;20048;-75
2022/05/28 14:00:27;;;;;;;0.43;0.10;;;17.30;59.90;;;;;;5043442;28;20033;-75
2022/05/28 14:02:58;;;;;;;0.30;0.30;;;17.00;65.70;;;;;;5041900;28;20036;-75
2022/05/28 14:05:33;;;;;;;1.77;0.60;;;16.60;68.30;;;;;;5041277;28;20036;-75
2022/05/28 14:08:04;;;;;;;0.47;0.30;;;16.70;78.50;;;;;;5041361;28;20025;-74
2022/05/28 14:10:37;;;;;;;0.47;0.47;;;17.00;80.70;;;;;;5053414;28;20037;-75
2022/05/28 14:13:03;;;;;;;1.58;0.52;;;17.80;82.40;;;;;;5041669;28;20037;-76
2022/05/28 14:15:31;;;;;;;0.30;0.30;;;19.40;74.40;;;;;;5042229;28;20058;-76
2022/05/28 14:17:57;;;;;;;2.47;0.80;;;23.40;59.40;;;;;;5050235;28;20025;-76
2022/05/28 14:20:33;;;;;;;6.88;0.55;;;26.00;50.70;;;;;;5050838;28;20017;-77
2022/05/28 14:22:59;;;;;;;1.00;0.40;;;28.30;48.30;;;;;;5042851;28;20479;-82
2022/05/28 14:25:30;;;;;;;1.25;0.47;;;25.30;46.60;;;;;;5041176;28;20067;-76
2022/05/28 14:28:01;;;;;;;0.55;0.52;;;22.90;51.90;;;;;;5049073;28;20040;-76
2022/05/28 14:30:32;;;;;;;1.60;1.00;;;20.60;56.40;;;;;;5042173;28;20124;-76
2022/05/28 14:32:57;;;;;;;2.57;0.97;;;19.20;61.50;;;;;;5046448;28;20037;-76
2022/05/28 14:35:39;;;;;;;1.90;0.57;;;18.20;65.60;;;;;;5045457;28;20100;-75
2022/05/28 14:38:06;;;;;;;0.50;0.50;;;17.40;67.50;;;;;;5037775;28;20029;-76
2022/05/28 14:40:34;;;;;;;2.05;0.57;;;16.80;70.50;;;;;;5041569;28;20033;-74
2022/05/28 14:43:01;;;;;;;0.38;0.22;;;16.40;71.90;;;;;;5048066;28;20032;-74